Kanoya, Japan

7:53 PM JST on May 29, 2015 (GMT +0900)
Kagoshima | | Change Station
CLOSE
Current Station
Airport
Location: Kagoshima Airport,
Elevation: 902 ft
Nearby Weather Stations

Elev 902 ft 31.80 °N, 130.72 °E | Updated 53 minutes ago

Scattered Clouds
Scattered Clouds
73 °F
Feels Like 73 °F
N
5
Wind Variable Wind from SSE

Today
High -- | Low -- °F
--% Chance of Precip.
Yesterday
High -- | Low -- °F
Precip. -- in
5:13 AM 7:14 PM
Waxing Gibbous, 83% visible
Pressure 29.74 in
Visibility 6.2 miles
Clouds Few 3000 ft
Scattered Clouds 4000 ft
Dew Point 64 °F
Humidity 73%
Rainfall 0.00 in
Snow Depth Not available.
UV 0 out of 12
Pollen Not available.
Air Quality Not available.
Flu Activity Not available.
METAR RJFK 291000Z 16004KT 110V200 9999 FEW030 SCT040 23/18 Q1007 RMK 1CU030 4SC040 A2974 VOLCANIC ASH CLOUD S

More Conditions Fewer Conditions

Pressure 29.74 in
Visibility 6.2 miles
Clouds Few 3000 ft
Scattered Clouds 4000 ft
Dew Point 64 °F
Humidity 73%
Rainfall 0.00 in
Snow Depth Not available.
UV 0 out of 12
Pollen Not available.
Air Quality Not available.
Flu Activity Not available.
METAR RJFK 291000Z 16004KT 110V200 9999 FEW030 SCT040 23/18 Q1007 RMK 1CU030 4SC040 A2974 VOLCANIC ASH CLOUD S

More Conditions Fewer Conditions

10-Day Weather Forecast

Almanac

Astronomy

May. 29, 2015 Rise Set
Actual Time
Civil Twilight
Nautical Twilight
Astronomical Twilight
Moon
Length of Visible Light
Length of Day
Tomorrow will be .
, % of the Moon is Illuminated

Today's Extremes

Country Highs Country Lows

Community

WunderPhotos

Upload Photos

1,825,233 photos uploaded!

WunderBlogs® & News

Nearby

Air Quality

  Air Quality AQ Index Pollutant
Not available.

Snow Depth

Station Depth Elevation

Earthquake Activity

City Distance Mag. Time & Date
Minimum magnitude displayed is 2.5.

Coastal Water Temperatures

Place Temperature

Stations

Nearby Weather Stations

Station Location Temp. Windchill Dew Point Humidity Wind Precip. Elev Updated Type